createdAt,value
2018-11-04T00:00:57.920Z,35.25
2018-11-04T00:03:27.221Z,38.45
2018-11-04T00:05:56.350Z,34.98
2018-11-04T00:08:25.451Z,39.03
2018-11-04T00:10:54.484Z,36.33
2018-11-04T00:13:23.655Z,38.48
2018-11-04T00:15:52.784Z,40.40
2018-11-04T00:18:21.870Z,37.53
2018-11-04T00:20:51.158Z,39.60
2018-11-04T00:23:20.504Z,39.40
2018-11-04T00:25:50.147Z,42.90
2018-11-04T00:28:19.355Z,34.35
2018-11-04T00:30:48.558Z,35.25
2018-11-04T00:33:17.750Z,35.58
2018-11-04T00:35:47.370Z,37.50
2018-11-04T00:38:17.375Z,30.45
2018-11-04T00:40:46.588Z,30.45
2018-11-04T00:43:15.895Z,36.85
2018-11-04T00:45:45.242Z,39.98
2018-11-04T00:48:14.711Z,38.25
2018-11-04T00:50:44.008Z,34.85
2018-11-04T00:53:13.346Z,33.70
2018-11-04T00:55:49.042Z,30.25
2018-11-04T00:58:18.309Z,33.63
2018-11-04T01:00:47.145Z,31.68
2018-11-04T01:03:16.271Z,37.80
2018-11-04T01:05:45.621Z,32.38
2018-11-04T01:08:14.688Z,34.00
2018-11-04T01:10:43.743Z,34.73
2018-11-04T01:13:13.760Z,33.15
2018-11-04T01:15:42.950Z,29.98
2018-11-04T01:18:12.163Z,30.57
2018-11-04T01:20:41.511Z,32.90
2018-11-04T01:23:10.653Z,30.80
2018-11-04T01:25:39.782Z,31.70
2018-11-04T01:28:09.126Z,30.15
2018-11-04T01:30:38.237Z,29.50
2018-11-04T01:33:07.297Z,26.82
2018-11-04T01:35:36.581Z,27.93
2018-11-04T01:38:05.792Z,28.20
2018-11-04T01:40:35.084Z,28.17
2018-11-04T01:43:04.427Z,28.07
2018-11-04T01:45:33.571Z,29.87
2018-11-04T01:48:02.670Z,33.28
2018-11-04T01:50:31.982Z,27.27
2018-11-04T01:53:01.239Z,27.30
2018-11-04T01:55:30.258Z,26.77
2018-11-04T01:57:59.534Z,24.87
2018-11-04T02:00:28.730Z,26.40
2018-11-04T02:02:57.962Z,26.52
2018-11-04T02:05:27.317Z,24.00
2018-11-04T02:07:56.370Z,21.37
2018-11-04T02:10:25.522Z,23.38
2018-11-04T02:12:54.762Z,25.37
2018-11-04T02:15:23.902Z,22.37
2018-11-04T02:17:53.147Z,23.20
2018-11-04T02:20:22.522Z,21.87
2018-11-04T02:22:51.562Z,24.23
2018-11-04T02:25:20.826Z,26.05
2018-11-04T02:27:49.887Z,24.65
2018-11-04T02:30:18.947Z,26.20
2018-11-04T02:32:48.042Z,30.88
2018-11-04T02:35:17.411Z,31.12
2018-11-04T02:37:46.526Z,33.55
2018-11-04T02:40:15.827Z,33.13
2018-11-04T02:42:45.183Z,33.23
2018-11-04T02:45:14.114Z,29.90
2018-11-04T02:47:43.211Z,29.05
2018-11-04T02:50:12.365Z,29.12
2018-11-04T02:52:41.722Z,30.30
2018-11-04T02:55:10.866Z,30.48
2018-11-04T02:57:40.254Z,30.50
2018-11-04T03:00:12.663Z,29.52
2018-11-04T03:02:42.614Z,28.95
2018-11-04T03:05:12.438Z,31.68
2018-11-04T03:07:42.296Z,29.48
2018-11-04T03:10:13.002Z,33.60
2018-11-04T03:12:42.294Z,34.73
2018-11-04T03:15:11.434Z,34.18
2018-11-04T03:17:40.810Z,39.75
2018-11-04T03:20:09.841Z,33.05
2018-11-04T03:22:39.717Z,34.30
2018-11-04T03:25:09.120Z,31.23
2018-11-04T03:27:38.375Z,34.03
2018-11-04T03:30:08.424Z,34.65
2018-11-04T03:32:37.973Z,36.68
2018-11-04T03:35:07.013Z,37.20
2018-11-04T03:37:36.185Z,39.55
2018-11-04T03:40:06.248Z,36.68
2018-11-04T03:42:35.447Z,35.40
2018-11-04T03:45:04.628Z,39.65
2018-11-04T03:47:34.087Z,39.20
2018-11-04T03:50:03.298Z,38.92
2018-11-04T03:52:32.528Z,39.03
2018-11-04T03:55:01.975Z,42.50
2018-11-04T03:57:31.058Z,38.02
2018-11-04T04:00:00.222Z,38.75
2018-11-04T04:02:29.666Z,39.45
2018-11-04T04:04:59.052Z,44.03
2018-11-04T04:07:28.158Z,37.83
2018-11-04T04:09:57.674Z,41.13
2018-11-04T04:12:26.763Z,43.95
2018-11-04T04:14:55.834Z,40.15
2018-11-04T04:17:24.894Z,44.58
2018-11-04T04:19:54.132Z,42.48
2018-11-04T04:22:23.329Z,41.35
2018-11-04T04:24:52.687Z,44.83
2018-11-04T04:27:21.923Z,42.50
2018-11-04T04:29:51.171Z,37.83
2018-11-04T04:32:20.135Z,39.60
2018-11-04T04:34:49.959Z,41.68
2018-11-04T04:37:19.270Z,38.10
2018-11-04T04:39:48.574Z,48.15
2018-11-04T04:42:17.816Z,46.95
2018-11-04T04:44:47.146Z,41.20
2018-11-04T04:47:16.672Z,42.78
2018-11-04T04:49:45.884Z,38.38
2018-11-04T04:52:15.178Z,39.50
2018-11-04T04:54:44.593Z,40.67
2018-11-04T04:57:13.878Z,48.35
2018-11-04T04:59:42.865Z,36.58
2018-11-04T05:02:12.595Z,41.95
2018-11-04T05:04:41.894Z,39.10
2018-11-04T05:07:11.085Z,36.38
2018-11-04T05:09:40.602Z,40.20
2018-11-04T05:12:09.861Z,37.10
2018-11-04T05:14:38.970Z,38.35
2018-11-04T05:17:07.988Z,40.85
2018-11-04T05:19:37.173Z,35.55
2018-11-04T05:22:06.826Z,36.38
2018-11-04T05:24:36.185Z,36.03
2018-11-04T05:27:05.218Z,33.30
2018-11-04T05:29:34.302Z,28.67
2018-11-04T05:32:03.831Z,29.65
2018-11-04T05:34:33.099Z,25.92
2018-11-04T05:37:02.411Z,27.65
2018-11-04T05:39:31.811Z,31.68
2018-11-04T05:42:00.853Z,25.60
2018-11-04T05:44:29.998Z,27.30
2018-11-04T05:46:59.588Z,26.10
2018-11-04T05:49:28.603Z,34.15
2018-11-04T05:51:57.918Z,22.85
2018-11-04T05:54:27.092Z,24.43
2018-11-04T05:56:56.198Z,24.15
2018-11-04T05:59:25.311Z,39.50
2018-11-04T06:01:54.831Z,25.62
2018-11-04T06:04:24.001Z,32.23
2018-11-04T06:06:53.379Z,26.97
2018-11-04T06:09:22.648Z,25.75
2018-11-04T06:11:51.738Z,27.02
2018-11-04T06:14:20.845Z,23.75
2018-11-04T06:16:50.158Z,29.57
2018-11-04T06:19:19.418Z,29.67
2018-11-04T06:21:48.556Z,30.32
2018-11-04T06:24:17.654Z,28.38
2018-11-04T06:26:46.778Z,31.68
2018-11-04T06:29:15.871Z,26.62
2018-11-04T06:31:45.338Z,29.32
2018-11-04T06:34:14.395Z,32.83
2018-11-04T06:36:43.591Z,27.25
2018-11-04T06:39:13.198Z,28.10
2018-11-04T06:41:42.332Z,24.90
2018-11-04T06:44:11.518Z,29.07
2018-11-04T06:46:40.798Z,26.77
2018-11-04T06:49:09.904Z,24.25
2018-11-04T06:51:38.934Z,30.17
2018-11-04T06:54:08.375Z,23.57
2018-11-04T06:56:37.479Z,22.20
2018-11-04T06:59:07.616Z,21.05
2018-11-04T07:01:37.245Z,15.00
2018-11-04T07:04:28.346Z,18.82
2018-11-04T07:06:58.241Z,17.23
2018-11-04T07:09:27.411Z,17.90
2018-11-04T07:11:56.538Z,12.23
2018-11-04T07:14:25.964Z,13.05
2018-11-04T07:16:55.215Z,12.55
2018-11-04T07:19:24.556Z,13.90
2018-11-04T07:21:53.921Z,13.10
2018-11-04T07:24:23.229Z,15.35
2018-11-04T07:26:52.538Z,14.35
2018-11-04T07:29:21.679Z,15.55
2018-11-04T07:31:50.839Z,14.07
2018-11-04T07:34:19.854Z,15.08
2018-11-04T07:36:49.400Z,15.08
2018-11-04T07:39:18.602Z,13.93
2018-11-04T07:41:47.835Z,14.43
2018-11-04T07:44:16.934Z,17.75
2018-11-04T07:46:46.159Z,17.32
2018-11-04T07:49:15.435Z,15.10
2018-11-04T07:51:44.516Z,15.23
2018-11-04T07:54:13.865Z,14.50
2018-11-04T07:56:43.192Z,16.12
2018-11-04T07:59:11.973Z,14.87
2018-11-04T08:01:41.322Z,15.75
2018-11-04T08:04:10.470Z,15.83
2018-11-04T08:06:39.925Z,15.93
2018-11-04T08:09:10.109Z,19.50
2018-11-04T08:11:39.569Z,15.68
2018-11-04T08:14:08.823Z,19.25
2018-11-04T08:16:38.062Z,15.13
2018-11-04T08:19:07.150Z,16.40
2018-11-04T08:21:36.378Z,15.83
2018-11-04T08:24:05.758Z,15.58
2018-11-04T08:26:34.955Z,16.32
2018-11-04T08:29:04.543Z,16.62
2018-11-04T08:31:33.789Z,12.80
2018-11-04T08:34:03.086Z,15.38
2018-11-04T08:36:32.737Z,16.48
2018-11-04T08:39:01.808Z,15.95
2018-11-04T08:41:31.015Z,17.23
2018-11-04T08:44:00.030Z,19.15
2018-11-04T08:46:29.134Z,14.40
2018-11-04T08:48:58.218Z,15.83
2018-11-04T08:51:27.807Z,14.13
2018-11-04T08:53:57.498Z,17.98
2018-11-04T08:56:26.788Z,17.90
2018-11-04T08:58:55.846Z,13.72
2018-11-04T09:01:24.930Z,14.78
2018-11-04T09:03:54.002Z,13.80
2018-11-04T09:06:23.184Z,13.68
2018-11-04T09:08:52.666Z,14.35
2018-11-04T09:11:21.858Z,15.48
2018-11-04T09:13:51.323Z,13.22
2018-11-04T09:16:20.410Z,15.53
2018-11-04T09:18:49.566Z,12.60
2018-11-04T09:21:18.971Z,10.50
2018-11-04T09:23:48.202Z,13.08
2018-11-04T09:26:17.194Z,12.07
2018-11-04T09:28:46.726Z,13.30
2018-11-04T09:31:15.815Z,14.85
2018-11-04T09:33:45.094Z,10.85
2018-11-04T09:36:14.600Z,9.95
2018-11-04T09:38:43.698Z,9.43
2018-11-04T09:41:13.409Z,11.18
2018-11-04T09:43:43.028Z,7.12
2018-11-04T09:46:12.146Z,10.15
2018-11-04T09:48:41.214Z,8.18
2018-11-04T09:51:10.354Z,8.30
2018-11-04T09:53:39.412Z,10.25
2018-11-04T09:56:08.582Z,8.10
2018-11-04T09:58:37.666Z,7.97
2018-11-04T10:01:07.009Z,6.58
2018-11-04T10:03:36.080Z,7.65
2018-11-04T10:06:05.466Z,7.58
2018-11-04T10:08:34.809Z,6.78
2018-11-04T10:11:04.103Z,9.28
2018-11-04T10:13:33.494Z,8.00
2018-11-04T10:16:02.434Z,12.63
2018-11-04T10:18:31.507Z,9.00
2018-11-04T10:21:01.416Z,7.05
2018-11-04T10:23:30.251Z,8.05
2018-11-04T10:25:59.487Z,6.87
2018-11-04T10:28:28.657Z,7.85
2018-11-04T10:30:57.807Z,7.17
2018-11-04T10:33:26.798Z,7.10
2018-11-04T10:35:56.104Z,8.78
2018-11-04T10:38:25.208Z,6.78
2018-11-04T10:40:54.403Z,4.03
2018-11-04T10:43:23.755Z,5.20
2018-11-04T10:45:53.008Z,6.08
2018-11-04T10:48:22.240Z,5.50
2018-11-04T10:50:51.462Z,4.97
2018-11-04T10:53:20.575Z,7.75
2018-11-04T10:55:49.728Z,5.72
2018-11-04T10:58:19.144Z,6.33
2018-11-04T11:00:53.425Z,5.40
2018-11-04T11:03:22.939Z,6.08
2018-11-04T11:05:52.201Z,6.40
2018-11-04T11:08:21.390Z,5.12
2018-11-04T11:10:50.833Z,4.85
2018-11-04T11:13:19.921Z,3.58
2018-11-04T11:15:49.041Z,3.02
2018-11-04T11:18:18.500Z,4.28
2018-11-04T11:20:47.754Z,4.42
2018-11-04T11:23:16.901Z,5.03
2018-11-04T11:25:46.175Z,4.75
2018-11-04T11:28:15.295Z,3.52
2018-11-04T11:30:44.399Z,2.80
2018-11-04T11:33:13.659Z,2.55
2018-11-04T11:35:42.842Z,2.15
2018-11-04T11:38:12.005Z,1.87
2018-11-04T11:40:41.430Z,2.83
2018-11-04T11:43:10.521Z,3.42
2018-11-04T11:45:39.485Z,3.42
2018-11-04T11:48:09.186Z,5.80
2018-11-04T11:50:38.512Z,4.40
2018-11-04T11:53:07.875Z,2.47
2018-11-04T11:55:37.116Z,2.70
2018-11-04T11:58:06.444Z,2.10
2018-11-04T12:00:35.734Z,2.15
2018-11-04T12:03:05.253Z,2.08
2018-11-04T12:05:34.348Z,2.17
2018-11-04T12:08:03.610Z,2.27
2018-11-04T12:10:33.422Z,3.15
2018-11-04T12:13:02.615Z,1.80
2018-11-04T12:15:31.651Z,1.72
2018-11-04T12:18:00.861Z,6.28
2018-11-04T12:20:30.048Z,1.75
2018-11-04T12:22:59.183Z,1.72
2018-11-04T12:25:28.707Z,1.95
2018-11-04T12:27:57.843Z,2.42
2018-11-04T12:30:26.675Z,1.98
2018-11-04T12:32:56.165Z,1.55
2018-11-04T12:35:25.384Z,3.72
2018-11-04T12:37:54.619Z,1.57
2018-11-04T12:40:24.038Z,3.80
2018-11-04T12:42:53.082Z,1.25
2018-11-04T12:45:22.243Z,2.17
2018-11-04T12:47:51.872Z,1.52
2018-11-04T12:50:20.966Z,1.22
2018-11-04T12:52:49.932Z,1.37
2018-11-04T12:55:19.380Z,3.45
2018-11-04T12:57:48.487Z,1.55
2018-11-04T13:00:17.674Z,1.27
2018-11-04T13:02:46.928Z,1.95
2018-11-04T13:05:16.063Z,1.22
2018-11-04T13:07:45.327Z,2.15
2018-11-04T13:10:15.371Z,0.88
2018-11-04T13:12:44.431Z,2.27
2018-11-04T13:15:14.530Z,1.27
2018-11-04T13:17:44.206Z,0.68
2018-11-04T13:20:13.484Z,2.20
2018-11-04T13:22:42.685Z,2.85
2018-11-04T13:25:12.162Z,0.60
2018-11-04T13:27:41.203Z,3.92
2018-11-04T13:30:12.159Z,1.35
2018-11-04T13:32:41.746Z,0.98
2018-11-04T13:35:10.825Z,2.02
2018-11-04T13:37:39.719Z,2.17
2018-11-04T13:40:10.753Z,1.02
2018-11-04T13:42:39.963Z,0.65
2018-11-04T13:45:09.441Z,1.37
2018-11-04T13:47:38.994Z,1.60
2018-11-04T13:50:11.250Z,1.42
2018-11-04T13:52:41.076Z,1.00
2018-11-04T13:55:10.113Z,1.32
2018-11-04T13:57:39.663Z,0.70
2018-11-04T14:00:11.115Z,0.90
2018-11-04T14:02:40.230Z,1.15
2018-11-04T14:05:10.456Z,0.85
2018-11-04T14:07:40.277Z,1.77
2018-11-04T14:10:10.827Z,0.70
2018-11-04T14:12:40.167Z,1.17
2018-11-04T14:15:09.294Z,0.57
2018-11-04T14:17:38.273Z,2.35
2018-11-04T14:20:08.811Z,1.22
2018-11-04T14:22:38.299Z,1.85
2018-11-04T14:25:08.166Z,1.22
2018-11-04T14:27:37.435Z,2.33
2018-11-04T14:30:08.990Z,2.85
2018-11-04T14:32:38.195Z,1.55
2018-11-04T14:35:08.638Z,1.17
2018-11-04T14:37:38.462Z,0.80
2018-11-04T14:40:08.804Z,1.37
2018-11-04T14:42:38.052Z,2.98
2018-11-04T14:45:07.927Z,0.85
2018-11-04T14:47:37.369Z,1.70
2018-11-04T14:50:08.573Z,3.77
2018-11-04T14:52:37.589Z,2.40
2018-11-04T14:55:06.915Z,1.42
2018-11-04T14:57:36.907Z,1.10
2018-11-04T15:00:09.910Z,2.08
2018-11-04T15:02:39.376Z,2.70
2018-11-04T15:05:09.043Z,1.30
2018-11-04T15:07:38.462Z,6.37
2018-11-04T15:10:09.749Z,1.10
2018-11-04T15:12:38.770Z,2.52
2018-11-04T15:15:09.712Z,2.77
2018-11-04T15:17:39.039Z,1.20
2018-11-04T15:20:08.585Z,1.52
2018-11-04T15:22:50.568Z,2.08
2018-11-04T15:25:20.754Z,3.72
2018-11-04T15:27:49.903Z,1.55
2018-11-04T15:30:19.247Z,2.15
2018-11-04T15:32:48.201Z,3.15
2018-11-04T15:35:17.786Z,1.65
2018-11-04T15:37:47.070Z,0.90
2018-11-04T15:40:17.041Z,2.17
2018-11-04T15:42:46.083Z,3.50
2018-11-04T15:45:16.272Z,1.67
2018-11-04T15:47:45.291Z,0.85
2018-11-04T15:50:16.755Z,3.02
2018-11-04T15:52:46.149Z,3.80
2018-11-04T15:55:15.414Z,2.00
2018-11-04T15:57:44.617Z,2.92
2018-11-04T16:00:14.860Z,0.75
2018-11-04T16:02:44.066Z,2.05
2018-11-04T16:05:13.302Z,2.27
2018-11-04T16:07:42.567Z,3.27
2018-11-04T16:10:12.261Z,1.17
2018-11-04T16:12:41.439Z,2.12
2018-11-04T16:15:12.393Z,1.70
2018-11-04T16:17:41.600Z,1.15
2018-11-04T16:20:12.392Z,3.00
2018-11-04T16:22:42.071Z,2.62
2018-11-04T16:25:12.009Z,3.22
2018-11-04T16:27:41.516Z,1.85
2018-11-04T16:30:12.156Z,2.75
2018-11-04T16:32:41.283Z,3.80
2018-11-04T16:35:11.883Z,2.83
2018-11-04T16:37:41.655Z,1.87
2018-11-04T16:40:11.162Z,2.85
2018-11-04T16:42:40.807Z,4.60
2018-11-04T16:45:12.160Z,2.77
2018-11-04T16:47:41.108Z,5.80
2018-11-04T16:50:12.084Z,3.47
2018-11-04T16:52:41.571Z,5.03
2018-11-04T16:55:11.718Z,3.42
2018-11-04T16:57:41.090Z,4.17
2018-11-04T17:00:10.918Z,3.40
2018-11-04T17:02:40.188Z,5.37
2018-11-04T17:05:10.400Z,4.70
2018-11-04T17:07:39.257Z,4.45
2018-11-04T17:10:08.724Z,8.03
2018-11-04T17:12:38.260Z,8.45
2018-11-04T17:15:09.093Z,6.92
2018-11-04T17:17:38.897Z,6.92
2018-11-04T17:20:12.847Z,7.45
2018-11-04T17:22:42.640Z,7.72
2018-11-04T17:25:12.051Z,8.15
2018-11-04T17:27:41.173Z,11.03
2018-11-04T17:30:14.503Z,7.60
2018-11-04T17:32:43.845Z,10.10
2018-11-04T17:35:14.107Z,9.75
2018-11-04T17:37:43.794Z,9.95
2018-11-04T17:40:13.746Z,10.25
2018-11-04T17:42:42.658Z,9.73
2018-11-04T17:45:13.537Z,10.55
2018-11-04T17:47:42.659Z,14.30
2018-11-04T17:50:14.186Z,9.68
2018-11-04T17:52:45.183Z,10.35
2018-11-04T17:55:14.210Z,11.28
2018-11-04T17:57:43.270Z,12.58
2018-11-04T18:00:13.826Z,9.68
2018-11-04T18:02:43.226Z,10.75
2018-11-04T18:05:12.768Z,13.58
2018-11-04T18:07:42.443Z,15.20
2018-11-04T18:10:12.471Z,11.35
2018-11-04T18:14:10.691Z,11.28
2018-11-04T18:16:39.726Z,10.38
2018-11-04T18:19:08.212Z,11.93
2018-11-04T18:21:38.111Z,7.12
2018-11-04T18:24:07.116Z,11.78
2018-11-04T18:26:36.511Z,9.73
2018-11-04T18:29:06.131Z,12.25
2018-11-04T18:31:35.117Z,8.48
2018-11-04T18:34:04.747Z,10.30
2018-11-04T18:36:33.581Z,7.60
2018-11-04T18:39:02.596Z,13.45
2018-11-04T18:41:31.622Z,11.25
2018-11-04T18:44:00.732Z,9.30
2018-11-04T18:46:29.869Z,7.33
2018-11-04T18:48:59.074Z,12.35
2018-11-04T18:51:28.185Z,10.40
2018-11-04T18:53:57.191Z,7.83
2018-11-04T18:56:25.939Z,12.95
2018-11-04T18:58:55.609Z,11.40
2018-11-04T19:01:24.386Z,11.53
2018-11-04T19:03:53.346Z,11.85
2018-11-04T19:06:22.740Z,15.25
2018-11-04T19:08:51.673Z,8.53
2018-11-04T19:11:20.839Z,10.00
2018-11-04T19:13:50.015Z,16.82
2018-11-04T19:16:19.062Z,17.35
2018-11-04T19:18:48.127Z,18.00
2018-11-04T19:21:17.020Z,20.32
2018-11-04T19:23:45.823Z,17.42
2018-11-04T19:26:14.579Z,20.30
2018-11-04T19:28:43.434Z,23.10
2018-11-04T19:31:12.618Z,27.20
2018-11-04T19:33:41.708Z,21.20
2018-11-04T19:36:10.731Z,24.90
2018-11-04T19:38:40.021Z,31.33
2018-11-04T19:41:08.990Z,27.67
2018-11-04T19:43:38.011Z,30.77
2018-11-04T19:46:06.869Z,35.40
2018-11-04T19:48:35.823Z,29.98
2018-11-04T19:51:05.080Z,33.28
2018-11-04T19:53:33.862Z,30.17
2018-11-04T19:56:02.857Z,32.63
2018-11-04T19:58:31.957Z,32.60
2018-11-04T20:01:01.126Z,36.30
2018-11-04T20:03:30.038Z,36.45
2018-11-04T20:05:59.554Z,37.00
2018-11-04T20:08:28.491Z,32.30
2018-11-04T20:10:57.435Z,33.85
2018-11-04T20:13:31.673Z,33.70
2018-11-04T20:16:00.571Z,35.17
2018-11-04T20:18:34.923Z,35.17
2018-11-04T20:21:04.024Z,33.55
2018-11-04T20:23:33.027Z,31.80
2018-11-04T20:26:05.282Z,36.53
2018-11-04T20:28:34.326Z,33.58
2018-11-04T20:31:03.068Z,39.50
2018-11-04T20:33:32.378Z,34.15
2018-11-04T20:36:01.601Z,36.38
2018-11-04T20:38:36.671Z,30.85
2018-11-04T20:41:11.078Z,34.25
2018-11-04T20:43:40.214Z,30.50
2018-11-04T20:46:09.445Z,27.50
2018-11-04T20:48:43.763Z,29.42
2018-11-04T20:51:12.702Z,26.57
2018-11-04T20:53:41.654Z,24.23
2018-11-04T20:56:15.886Z,21.30
2018-11-04T20:58:44.945Z,19.60
2018-11-04T21:01:13.985Z,19.80
2018-11-04T21:03:43.443Z,19.65
2018-11-04T21:06:12.229Z,19.25
2018-11-04T21:08:41.292Z,18.67
2018-11-04T21:11:10.318Z,21.62
2018-11-04T21:13:39.154Z,24.12
2018-11-04T21:16:08.431Z,24.32
2018-11-04T21:18:37.679Z,27.75
2018-11-04T21:21:06.750Z,24.47
2018-11-04T21:23:35.555Z,29.27
2018-11-04T21:26:04.651Z,20.25
2018-11-04T21:28:33.555Z,19.20
2018-11-04T21:31:02.367Z,27.25
2018-11-04T21:33:31.433Z,23.80
2018-11-04T21:36:00.246Z,28.55
2018-11-04T21:38:29.543Z,24.65
2018-11-04T21:40:58.570Z,25.48
2018-11-04T21:43:27.703Z,18.45
2018-11-04T21:45:56.508Z,18.98
2018-11-04T21:48:25.501Z,20.48
2018-11-04T21:50:54.415Z,21.52
2018-11-04T21:53:23.275Z,20.30
2018-11-04T21:55:53.270Z,22.22
2018-11-04T21:58:23.340Z,21.30
2018-11-04T22:00:52.227Z,26.65
2018-11-04T22:03:21.404Z,24.07
2018-11-04T22:05:50.406Z,28.45
2018-11-04T22:08:19.301Z,28.67
2018-11-04T22:10:48.012Z,25.60
2018-11-04T22:13:16.958Z,24.67
2018-11-04T22:15:45.873Z,27.15
2018-11-04T22:18:15.095Z,26.62
2018-11-04T22:20:44.073Z,24.55
2018-11-04T22:23:12.950Z,28.00
2018-11-04T22:25:42.162Z,30.02
2018-11-04T22:28:11.153Z,25.37
2018-11-04T22:30:40.239Z,24.43
2018-11-04T22:33:09.247Z,22.87
2018-11-04T22:35:38.235Z,27.80
2018-11-04T22:38:07.194Z,30.45
2018-11-04T22:40:36.603Z,26.73
2018-11-04T22:43:05.603Z,26.85
2018-11-04T22:45:34.517Z,25.32
2018-11-04T22:48:03.804Z,20.20
2018-11-04T22:50:32.813Z,18.48
2018-11-04T22:53:01.552Z,18.05
2018-11-04T22:55:31.124Z,16.67
2018-11-04T22:58:04.943Z,14.55
2018-11-04T23:00:39.587Z,15.98
2018-11-04T23:03:08.746Z,18.32
2018-11-04T23:05:37.840Z,15.48
2018-11-04T23:08:07.420Z,12.20
2018-11-04T23:10:36.442Z,13.98
2018-11-04T23:13:05.534Z,12.85
2018-11-04T23:15:34.649Z,13.60
2018-11-04T23:18:04.865Z,17.62
2018-11-04T23:20:33.864Z,16.80
2018-11-04T23:23:03.213Z,15.23
2018-11-04T23:25:32.466Z,15.10
2018-11-04T23:28:01.264Z,15.48
2018-11-04T23:30:30.517Z,13.95
2018-11-04T23:32:59.343Z,13.18
2018-11-04T23:35:28.532Z,14.05
2018-11-04T23:37:57.855Z,14.25
2018-11-04T23:40:26.639Z,14.20
2018-11-04T23:42:55.807Z,13.75
2018-11-04T23:45:24.938Z,15.10
2018-11-04T23:47:54.626Z,13.93
2018-11-04T23:50:23.802Z,14.33
2018-11-04T23:52:53.646Z,15.72
2018-11-04T23:55:22.430Z,12.88
2018-11-04T23:57:51.117Z,11.73
